Time;durP1;ratioP1;P1;durP2;ratioP2;P2;SDS_P1;SDS_P2;PMS_P1;PMS_P2;Temp;Humidity;BMP_temperature;BMP_pressure;BME280_temperature;BME280_humidity;BME280_pressure;Samples;Min_cycle;Max_cycle;Signal;HPM_P1;HPM_P2
2021/10/13 05:15:32;;;;;;;9.10;5.97;;;;;;;;;;6242905;22;20550;-78
2021/10/13 05:17:57;;;;;;;9.50;5.80;;;;;;;;;;6246582;23;20023;-79
2021/10/13 05:20:23;;;;;;;9.45;6.38;;;;;;;;;;6219737;23;20004;-84
2021/10/13 05:22:48;;;;;;;9.77;6.57;;;;;;;;;;6219698;23;20032;-84
2021/10/13 05:25:14;;;;;;;9.27;5.50;;;;;;;;;;6246471;23;20481;-83
2021/10/13 05:27:39;;;;;;;9.05;6.00;;;;;;;;;;6246579;23;20008;-82
2021/10/13 05:30:05;;;;;;;10.18;6.15;;;;;;;;;;6247706;23;20004;-80
2021/10/13 05:32:31;;;;;;;9.07;5.70;;;;;;;;;;6246745;22;20415;-89
2021/10/13 05:34:56;;;;;;;8.63;5.95;;;;;;;;;;6246374;23;20004;-80
2021/10/13 05:37:21;;;;;;;9.90;6.20;;;;;;;;;;6246476;23;20004;-80
2021/10/13 05:39:47;;;;;;;8.70;6.00;;;;;;;;;;6247211;23;20078;-79
2021/10/13 05:42:13;;;;;;;7.18;5.60;;;;;;;;;;6246646;22;20391;-80
2021/10/13 05:44:38;;;;;;;6.95;5.28;;;;;;;;;;6246585;23;20011;-80
2021/10/13 05:47:04;;;;;;;8.35;5.60;;;;;;;;;;6246351;23;20004;-80
2021/10/13 05:49:29;;;;;;;8.48;5.70;;;;;;;;;;6246438;23;20026;-80
2021/10/13 05:51:54;;;;;;;7.97;5.93;;;;;;;;;;6246231;22;20075;-81
2021/10/13 05:54:20;;;;;;;8.85;6.53;;;;;;;;;;6246382;23;20028;-81
2021/10/13 05:56:50;;;;;;;8.27;5.35;;;;;;;;;;6246615;23;20083;-80
2021/10/13 05:59:15;;;;;;;7.78;5.85;;;;;;;;;;6246362;23;20010;-83
2021/10/13 06:01:40;;;;;;;8.95;5.88;;;;;;;;;;6246552;22;20043;-87
2021/10/13 09:27:32;;;;;;;3.88;1.83;;;;;;;;;;6213967;23;20012;-75
2021/10/13 09:30:07;;;;;;;53.30;5.65;;;;;;;;;;6246580;23;20031;-75
2021/10/13 09:32:32;;;;;;;16.60;3.00;;;;;;;;;;6245034;23;20007;-76
2021/10/13 09:34:58;;;;;;;3.63;1.67;;;;;;;;;;6246301;22;20008;-77
2021/10/13 09:37:24;;;;;;;2.85;1.70;;;;;;;;;;6246956;23;20039;-75
2021/10/13 09:39:58;;;;;;;59.30;7.85;;;;;;;;;;6246836;23;20300;-75
2021/10/13 09:42:25;;;;;;;11.02;2.50;;;;;;;;;;6246556;23;20029;-77
2021/10/13 09:44:54;;;;;;;16.88;3.30;;;;;;;;;;6246098;22;20042;-79
2021/10/13 09:47:27;;;;;;;;;;;;;;;;;;6247060;23;20004;-75
2021/10/13 09:49:52;;;;;;;2.08;1.50;;;;;;;;;;6246536;23;19907;-76
2021/10/13 09:52:24;;;;;;;1.70;1.50;;;;;;;;;;6246690;23;20430;-77
2021/10/13 09:55:01;;;;;;;3.55;1.50;;;;;;;;;;6246164;22;19996;-77
2021/10/13 09:57:30;;;;;;;2.45;1.58;;;;;;;;;;6246410;23;20027;-79
2021/10/13 10:00:00;;;;;;;;;;;;;;;;;;6247367;23;20023;-75
2021/10/13 10:02:30;;;;;;;1.42;1.10;;;;;;;;;;6219431;23;19907;-77
2021/10/13 10:04:58;;;;;;;2.25;1.30;;;;;;;;;;6246265;22;20004;-75
2021/10/13 10:07:25;;;;;;;1.10;1.00;;;;;;;;;;6246269;23;20023;-78
2021/10/13 10:10:07;;;;;;;1.88;1.08;;;;;;;;;;6246231;23;20031;-75
2021/10/13 10:13:03;;;;;;;1.10;0.80;;;;;;;;;;6246529;23;20370;-74
2021/10/13 10:15:39;;;;;;;1.60;0.75;;;;;;;;;;6203476;23;20004;-73
2021/10/13 10:18:31;;;;;;;2.55;1.08;;;;;;;;;;6246587;23;20008;-73
2021/10/13 10:21:20;;;;;;;1.00;0.80;;;;;;;;;;6246203;23;20030;-75
2021/10/13 10:24:10;;;;;;;0.95;0.80;;;;;;;;;;6246318;22;20012;-77
2021/10/13 10:26:35;;;;;;;0.98;0.90;;;;;;;;;;6235375;23;20015;-74
2021/10/13 10:29:12;;;;;;;1.02;0.90;;;;;;;;;;6246018;23;20347;-74
2021/10/13 10:31:41;;;;;;;2.58;0.82;;;;;;;;;;6246516;23;20012;-75
2021/10/13 10:34:08;;;;;;;1.50;0.82;;;;;;;;;;6246234;22;20343;-78
2021/10/13 10:36:39;;;;;;;1.35;0.75;;;;;;;;;;6248142;23;20067;-74
2021/10/13 10:39:10;;;;;;;1.50;0.57;;;;;;;;;;6248034;23;20008;-78
2021/10/13 10:41:46;;;;;;;2.05;0.52;;;;;;;;;;6221391;23;20031;-77
2021/10/13 10:44:44;;;;;;;1.55;1.45;;;;;;;;;;6247954;22;20382;-78
2021/10/13 10:47:10;;;;;;;0.93;0.70;;;;;;;;;;6247854;23;20071;-78
2021/10/13 10:49:52;;;;;;;0.95;0.85;;;;;;;;;;6247931;23;20000;-79
2021/10/13 10:52:21;;;;;;;2.15;0.63;;;;;;;;;;6248178;23;20008;-78
2021/10/13 10:54:51;;;;;;;0.77;0.60;;;;;;;;;;6247924;22;20004;-79
2021/10/13 10:57:44;;;;;;;1.17;0.80;;;;;;;;;;6247958;23;20019;-76
2021/10/13 11:00:36;;;;;;;2.30;0.80;;;;;;;;;;6247971;23;20027;-77
2021/10/13 11:03:18;;;;;;;1.10;0.82;;;;;;;;;;6247747;22;20416;-77
2021/10/13 11:05:44;;;;;;;1.17;0.70;;;;;;;;;;6247690;23;20004;-76
2021/10/13 11:08:10;;;;;;;1.17;0.70;;;;;;;;;;6247688;23;20470;-76
2021/10/13 11:10:36;;;;;;;0.95;0.60;;;;;;;;;;6247950;23;20006;-77
2021/10/13 11:13:01;;;;;;;1.58;0.60;;;;;;;;;;6247946;22;20000;-77
2021/10/13 11:15:31;;;;;;;1.88;1.10;;;;;;;;;;6247730;23;20063;-76
2021/10/13 11:18:08;;;;;;;4.05;1.33;;;;;;;;;;6247522;23;20038;-77
2021/10/13 11:20:34;;;;;;;3.67;0.95;;;;;;;;;;6247360;23;20134;-76
2021/10/13 11:23:02;;;;;;;5.95;1.00;;;;;;;;;;6247825;22;20000;-76
2021/10/13 11:25:29;;;;;;;3.58;0.90;;;;;;;;;;6247674;23;20091;-76
2021/10/13 11:28:01;;;;;;;2.88;1.10;;;;;;;;;;6247428;23;20012;-77
2021/10/13 11:30:29;;;;;;;3.00;0.80;;;;;;;;;;6247572;23;20008;-77
2021/10/13 11:32:56;;;;;;;2.67;0.82;;;;;;;;;;6246800;22;20000;-78
2021/10/13 11:35:22;;;;;;;3.50;1.13;;;;;;;;;;6220500;23;20004;-78
2021/10/13 11:37:50;;;;;;;0.80;0.52;;;;;;;;;;6247644;23;20296;-76
2021/10/13 11:40:17;;;;;;;1.35;0.80;;;;;;;;;;6247612;23;20000;-75
2021/10/13 11:42:43;;;;;;;1.00;0.60;;;;;;;;;;6247107;22;20075;-74
2021/10/13 11:45:14;;;;;;;0.65;0.50;;;;;;;;;;6247081;23;20000;-74
2021/10/13 11:47:40;;;;;;;13.25;0.90;;;;;;;;;;6247304;23;20006;-74
2021/10/13 11:50:07;;;;;;;1.73;0.70;;;;;;;;;;6247370;23;20083;-77
2021/10/13 16:43:51;;;;;;;5.90;4.15;;;;;;;;;;6218564;23;20331;-79
2021/10/13 16:46:16;;;;;;;5.70;4.18;;;;;;;;;;6246054;23;20316;-76
2021/10/13 16:48:42;;;;;;;6.22;4.35;;;;;;;;;;6246031;22;20079;-74
2021/10/13 16:51:07;;;;;;;7.38;4.55;;;;;;;;;;6246052;23;20085;-76
2021/10/13 16:53:33;;;;;;;6.95;4.25;;;;;;;;;;6246223;23;20081;-73
2021/10/13 16:55:58;;;;;;;7.03;4.22;;;;;;;;;;6246438;23;20069;-75
2021/10/13 16:58:24;;;;;;;7.07;4.50;;;;;;;;;;6246957;23;20000;-74
2021/10/13 17:00:50;;;;;;;9.23;4.43;;;;;;;;;;6219569;23;20419;-74
2021/10/13 17:03:17;;;;;;;7.25;4.57;;;;;;;;;;6247030;23;20000;-75
2021/10/13 17:05:43;;;;;;;7.53;4.45;;;;;;;;;;6219497;23;20331;-73
2021/10/13 17:08:09;;;;;;;6.32;4.45;;;;;;;;;;6246638;23;20007;-74
2021/10/13 17:10:37;;;;;;;7.50;5.20;;;;;;;;;;6246517;22;20030;-74
2021/10/13 17:13:02;;;;;;;6.78;4.63;;;;;;;;;;6219751;23;20014;-74
2021/10/13 17:15:28;;;;;;;8.05;5.28;;;;;;;;;;6219687;23;20374;-74
2021/10/13 17:17:53;;;;;;;8.18;4.20;;;;;;;;;;6246369;23;20032;-73
2021/10/13 17:20:19;;;;;;;6.43;3.78;;;;;;;;;;6246531;22;20319;-75
2021/10/13 17:22:44;;;;;;;5.57;4.60;;;;;;;;;;6220077;23;20081;-74
2021/10/13 17:25:10;;;;;;;10.23;4.57;;;;;;;;;;6246410;23;20079;-74
2021/10/13 17:27:35;;;;;;;5.28;3.55;;;;;;;;;;6246237;23;20000;-74
2021/10/13 17:30:02;;;;;;;5.97;4.35;;;;;;;;;;6246273;22;20008;-74
2021/10/13 17:32:28;;;;;;;8.25;4.93;;;;;;;;;;6246443;23;20363;-74
2021/10/13 17:34:53;;;;;;;6.78;4.43;;;;;;;;;;6246682;23;20008;-77
2021/10/13 17:37:20;;;;;;;9.25;5.88;;;;;;;;;;6246301;23;20301;-74
2021/10/13 17:39:47;;;;;;;11.85;6.38;;;;;;;;;;6246447;22;20319;-73
2021/10/13 17:42:13;;;;;;;10.27;6.30;;;;;;;;;;6246702;23;20374;-77
2021/10/13 17:44:39;;;;;;;9.20;6.75;;;;;;;;;;6245803;23;20123;-77
2021/10/13 17:47:05;;;;;;;9.00;5.18;;;;;;;;;;6246332;23;20032;-76
2021/10/13 17:49:32;;;;;;;8.55;5.70;;;;;;;;;;6246124;22;20022;-75
2021/10/13 17:51:57;;;;;;;8.95;5.32;;;;;;;;;;6220151;23;20015;-75
2021/10/13 17:54:23;;;;;;;7.10;4.25;;;;;;;;;;6246108;23;20335;-75
2021/10/13 17:56:48;;;;;;;7.10;4.60;;;;;;;;;;6246278;23;20078;-76
2021/10/13 17:59:16;;;;;;;5.78;4.75;;;;;;;;;;6246173;22;20415;-74
2021/10/13 18:01:41;;;;;;;6.72;4.18;;;;;;;;;;6246895;23;20004;-75
2021/10/13 18:04:08;;;;;;;7.15;3.88;;;;;;;;;;6246316;23;20327;-77
2021/10/13 18:06:34;;;;;;;5.30;3.30;;;;;;;;;;6246329;23;20008;-74
2021/10/13 18:08:59;;;;;;;4.72;3.75;;;;;;;;;;6246193;22;20039;-74
2021/10/13 18:11:26;;;;;;;6.05;4.22;;;;;;;;;;6246336;23;20000;-75
2021/10/13 18:13:52;;;;;;;4.10;3.40;;;;;;;;;;6246135;23;20277;-76
2021/10/13 18:16:18;;;;;;;5.32;3.40;;;;;;;;;;6246310;23;20032;-75
2021/10/13 18:18:43;;;;;;;6.25;3.38;;;;;;;;;;6246424;22;20054;-77
2021/10/13 18:21:08;;;;;;;6.90;3.40;;;;;;;;;;6246261;23;20011;-77
2021/10/13 18:23:34;;;;;;;4.20;3.20;;;;;;;;;;6246427;23;20004;-76
2021/10/13 18:26:00;;;;;;;4.20;2.45;;;;;;;;;;6246402;23;20419;-76
2021/10/13 18:28:27;;;;;;;3.75;2.40;;;;;;;;;;6246642;23;20689;-76
2021/10/13 18:30:52;;;;;;;3.17;2.10;;;;;;;;;;6246031;22;20007;-77
2021/10/13 18:33:18;;;;;;;2.28;1.90;;;;;;;;;;6219455;23;20005;-78
2021/10/13 18:35:43;;;;;;;7.00;3.05;;;;;;;;;;6246592;23;20043;-75
2021/10/13 18:38:09;;;;;;;3.60;2.63;;;;;;;;;;6247448;23;20027;-75
2021/10/13 18:40:34;;;;;;;2.13;1.80;;;;;;;;;;6250190;22;20373;-75
2021/10/13 18:43:02;;;;;;;2.28;1.80;;;;;;;;;;6248981;23;20009;-77
2021/10/13 18:45:27;;;;;;;2.20;1.98;;;;;;;;;;6246161;23;20038;-76
2021/10/13 18:47:53;;;;;;;3.85;1.70;;;;;;;;;;6246507;23;20008;-77
2021/10/13 18:50:18;;;;;;;2.88;1.17;;;;;;;;;;6246039;22;20005;-76
2021/10/13 18:52:49;;;;;;;3.60;1.40;;;;;;;;;;6246260;23;20011;-76
2021/10/13 18:55:15;;;;;;;1.80;1.30;;;;;;;;;;6246609;23;20473;-74
2021/10/13 18:57:41;;;;;;;1.38;0.90;;;;;;;;;;6247882;23;20301;-74
2021/10/13 19:00:08;;;;;;;1.00;0.90;;;;;;;;;;6248096;22;20004;-75
2021/10/13 19:02:34;;;;;;;0.77;0.70;;;;;;;;;;6247891;23;20123;-75
2021/10/13 19:04:59;;;;;;;1.05;0.70;;;;;;;;;;6248067;23;20032;-75
2021/10/13 19:07:25;;;;;;;1.20;1.10;;;;;;;;;;6247960;23;20000;-75
2021/10/13 19:09:50;;;;;;;0.95;0.73;;;;;;;;;;6248000;22;19996;-79
2021/10/13 19:12:16;;;;;;;1.77;1.15;;;;;;;;;;6248237;23;20008;-77
2021/10/13 19:14:42;;;;;;;1.90;1.20;;;;;;;;;;6248629;23;20007;-80
2021/10/13 19:17:08;;;;;;;1.40;0.50;;;;;;;;;;6248444;23;20000;-80
2021/10/13 19:19:33;;;;;;;1.98;1.05;;;;;;;;;;6248961;22;20008;-76
2021/10/13 19:21:59;;;;;;;1.60;1.27;;;;;;;;;;6248243;23;20020;-75
2021/10/13 19:24:25;;;;;;;1.33;1.23;;;;;;;;;;6247634;23;20403;-74
2021/10/13 19:26:51;;;;;;;1.50;1.10;;;;;;;;;;6246965;22;20031;-73
2021/10/13 19:29:18;;;;;;;1.13;0.70;;;;;;;;;;6247316;22;20374;-75
2021/10/13 19:31:45;;;;;;;1.00;0.73;;;;;;;;;;6247508;23;20004;-74
2021/10/13 19:34:10;;;;;;;1.00;0.80;;;;;;;;;;6247455;23;20000;-77
2021/10/13 19:36:36;;;;;;;1.92;1.67;;;;;;;;;;6247475;23;20008;-76
2021/10/13 19:39:02;;;;;;;1.23;1.08;;;;;;;;;;6247518;22;20404;-74
2021/10/13 19:41:28;;;;;;;1.60;1.10;;;;;;;;;;6247919;23;20036;-74
2021/10/13 19:43:53;;;;;;;1.15;0.90;;;;;;;;;;6247271;23;20039;-76
2021/10/13 19:46:23;;;;;;;1.13;0.90;;;;;;;;;;6247843;23;20020;-74
2021/10/13 19:48:48;;;;;;;1.40;1.17;;;;;;;;;;6247413;22;20069;-75
2021/10/13 19:51:13;;;;;;;6.20;0.88;;;;;;;;;;6247396;23;20079;-74
2021/10/13 19:53:39;;;;;;;1.27;0.82;;;;;;;;;;6247679;23;20380;-77
2021/10/13 19:56:05;;;;;;;1.33;1.10;;;;;;;;;;6247416;23;20419;-76
2021/10/13 19:58:30;;;;;;;1.85;0.82;;;;;;;;;;6247331;23;20388;-73
2021/10/13 20:00:56;;;;;;;1.05;0.82;;;;;;;;;;6247151;22;20039;-78
2021/10/13 20:03:21;;;;;;;1.10;0.90;;;;;;;;;;6247244;23;20000;-75
2021/10/13 20:05:47;;;;;;;0.60;0.60;;;;;;;;;;6247091;23;20039;-77
2021/10/13 20:08:12;;;;;;;1.27;1.00;;;;;;;;;;6247242;23;20008;-76
2021/10/13 20:10:38;;;;;;;0.68;0.60;;;;;;;;;;6247024;22;20004;-76
2021/10/13 20:13:03;;;;;;;1.92;0.88;;;;;;;;;;6220380;23;20062;-75
2021/10/13 20:15:29;;;;;;;2.00;1.00;;;;;;;;;;6247520;23;20004;-78
2021/10/13 20:17:54;;;;;;;1.90;0.90;;;;;;;;;;6247348;23;20077;-76
2021/10/13 20:20:20;;;;;;;0.80;0.73;;;;;;;;;;6247125;22;20060;-76
2021/10/13 20:22:46;;;;;;;0.90;0.60;;;;;;;;;;6247256;23;20000;-75
2021/10/13 20:25:12;;;;;;;2.15;0.70;;;;;;;;;;6220294;23;20008;-76
2021/10/13 20:27:37;;;;;;;1.88;0.90;;;;;;;;;;6247409;23;20438;-76
2021/10/13 20:30:05;;;;;;;1.40;0.68;;;;;;;;;;6247373;22;20050;-78
2021/10/13 20:32:30;;;;;;;0.73;0.60;;;;;;;;;;6247058;23;20419;-79
2021/10/13 20:34:56;;;;;;;1.15;1.00;;;;;;;;;;6247178;23;20000;-77
2021/10/13 20:37:21;;;;;;;1.00;0.80;;;;;;;;;;6247029;23;20024;-78
2021/10/13 20:39:47;;;;;;;1.65;0.73;;;;;;;;;;6247413;22;20004;-78
2021/10/13 20:42:14;;;;;;;1.60;0.93;;;;;;;;;;6247092;23;20319;-78
2021/10/13 20:44:40;;;;;;;1.15;1.05;;;;;;;;;;6247148;23;20035;-78
2021/10/13 20:47:06;;;;;;;0.75;0.65;;;;;;;;;;6246926;23;20007;-79
2021/10/13 20:49:31;;;;;;;1.23;1.10;;;;;;;;;;6246921;22;20000;-78
2021/10/13 20:51:56;;;;;;;1.60;0.90;;;;;;;;;;6247070;23;20012;-79
2021/10/13 20:54:22;;;;;;;0.80;0.60;;;;;;;;;;6246850;23;20061;-78
2021/10/13 20:56:47;;;;;;;0.98;0.70;;;;;;;;;;6246805;23;20411;-76
2021/10/13 20:59:13;;;;;;;1.10;0.80;;;;;;;;;;6246764;22;20436;-77
2021/10/13 21:01:38;;;;;;;1.00;0.80;;;;;;;;;;6246863;23;20006;-77
2021/10/13 21:04:04;;;;;;;1.20;1.08;;;;;;;;;;6246815;23;20379;-78
2021/10/13 21:06:29;;;;;;;1.17;0.88;;;;;;;;;;6246921;23;20048;-78
2021/10/13 21:08:55;;;;;;;1.30;1.02;;;;;;;;;;6246611;22;20004;-78
2021/10/13 21:11:20;;;;;;;0.63;0.63;;;;;;;;;;6246728;23;20004;-78
2021/10/13 21:13:46;;;;;;;1.00;0.90;;;;;;;;;;6246588;23;20427;-75
2021/10/13 21:16:12;;;;;;;1.67;0.65;;;;;;;;;;6246902;23;20004;-75
2021/10/13 21:18:38;;;;;;;1.20;0.80;;;;;;;;;;6246403;22;20000;-76
2021/10/13 21:21:03;;;;;;;1.42;0.88;;;;;;;;;;6246702;23;20035;-76
2021/10/13 21:23:29;;;;;;;2.20;0.90;;;;;;;;;;6246524;23;20382;-76
2021/10/13 21:25:54;;;;;;;0.80;0.80;;;;;;;;;;6246901;23;20004;-76
2021/10/13 21:28:20;;;;;;;0.60;0.52;;;;;;;;;;6246559;23;20008;-78
2021/10/13 21:30:45;;;;;;;0.90;0.60;;;;;;;;;;6246504;22;20004;-78
2021/10/13 21:33:11;;;;;;;1.58;0.80;;;;;;;;;;6246599;23;20004;-77
2021/10/13 21:35:37;;;;;;;1.13;0.70;;;;;;;;;;6246639;23;20003;-77
2021/10/13 21:38:03;;;;;;;1.48;0.88;;;;;;;;;;6219675;23;20004;-79
2021/10/13 21:40:29;;;;;;;0.73;0.57;;;;;;;;;;6246288;22;19996;-78
2021/10/13 21:42:54;;;;;;;0.82;0.68;;;;;;;;;;6246519;23;20016;-75
2021/10/13 21:45:20;;;;;;;1.42;0.70;;;;;;;;;;6246580;23;20013;-77
2021/10/13 21:47:45;;;;;;;0.75;0.75;;;;;;;;;;6246456;23;20000;-74
2021/10/13 21:50:11;;;;;;;1.02;0.65;;;;;;;;;;6246353;22;20434;-75
2021/10/13 21:52:36;;;;;;;1.10;0.80;;;;;;;;;;6246421;23;20004;-77
2021/10/13 21:55:03;;;;;;;1.08;0.98;;;;;;;;;;6247019;23;20061;-75
2021/10/13 21:57:28;;;;;;;1.10;0.88;;;;;;;;;;6246588;23;20000;-76
2021/10/13 21:59:53;;;;;;;0.95;0.75;;;;;;;;;;6246199;22;20004;-75
2021/10/13 22:02:19;;;;;;;1.13;0.80;;;;;;;;;;6246556;23;20000;-75
2021/10/13 22:04:45;;;;;;;1.13;0.95;;;;;;;;;;6246375;23;20039;-77
2021/10/13 22:07:10;;;;;;;0.93;0.90;;;;;;;;;;6246272;23;20010;-74
2021/10/13 22:09:37;;;;;;;1.55;0.80;;;;;;;;;;6246793;22;20008;-76
2021/10/13 22:12:05;;;;;;;1.30;0.80;;;;;;;;;;6246612;23;20035;-75
2021/10/13 22:14:31;;;;;;;0.70;0.70;;;;;;;;;;6246543;23;20336;-75
2021/10/13 22:16:57;;;;;;;1.27;0.88;;;;;;;;;;6246354;23;20001;-77
2021/10/13 22:19:22;;;;;;;1.52;0.70;;;;;;;;;;6246410;22;20004;-75
2021/10/13 22:21:48;;;;;;;0.68;0.55;;;;;;;;;;6246261;23;20004;-76
2021/10/13 22:24:13;;;;;;;0.82;0.70;;;;;;;;;;6246639;23;20397;-75
2021/10/13 22:26:39;;;;;;;1.50;1.20;;;;;;;;;;6246227;23;20083;-76
2021/10/13 22:29:05;;;;;;;1.70;1.10;;;;;;;;;;6246778;22;20000;-79
